createdAt,value
2022-11-06T00:00:45.181Z,33.37
2022-11-06T00:03:14.059Z,32.50
2022-11-06T00:06:01.093Z,31.63
2022-11-06T00:08:32.505Z,29.93
2022-11-06T00:11:01.139Z,28.43
2022-11-06T00:13:29.862Z,28.70
2022-11-06T00:15:59.318Z,28.33
2022-11-06T00:18:28.531Z,30.87
2022-11-06T00:20:57.741Z,28.40
2022-11-06T00:23:26.234Z,27.57
2022-11-06T00:25:56.723Z,29.93
2022-11-06T00:28:26.198Z,30.87
2022-11-06T00:31:03.154Z,30.07
2022-11-06T00:33:31.589Z,31.73
2022-11-06T00:36:00.386Z,25.53
2022-11-06T00:38:28.785Z,33.70
2022-11-06T00:40:58.669Z,24.97
2022-11-06T00:43:27.118Z,30.67
2022-11-06T00:45:55.474Z,25.77
2022-11-06T00:48:23.881Z,36.23
2022-11-06T00:50:52.315Z,32.53
2022-11-06T00:53:20.790Z,33.03
2022-11-06T00:55:49.194Z,30.53
2022-11-06T00:58:18.958Z,30.63
2022-11-06T01:00:47.573Z,31.97
2022-11-06T01:03:16.031Z,30.10
2022-11-06T01:05:44.407Z,32.30
2022-11-06T01:08:13.018Z,33.43
2022-11-06T01:10:41.653Z,35.53
2022-11-06T01:13:10.058Z,29.00
2022-11-06T01:15:39.806Z,33.97
2022-11-06T01:18:08.221Z,33.93
2022-11-06T01:20:38.956Z,32.13
2022-11-06T01:23:07.365Z,32.90
2022-11-06T01:25:35.753Z,33.43
2022-11-06T01:28:04.241Z,29.57
2022-11-06T01:30:32.617Z,32.53
2022-11-06T01:33:02.459Z,28.53
2022-11-06T01:35:30.920Z,29.37
2022-11-06T01:37:59.311Z,35.53
2022-11-06T01:40:27.705Z,29.83
2022-11-06T01:42:56.093Z,32.10
2022-11-06T01:45:31.246Z,37.47
2022-11-06T01:47:59.672Z,27.83
2022-11-06T01:50:29.486Z,28.87
2022-11-06T01:53:00.853Z,26.50
2022-11-06T01:55:31.333Z,29.10
2022-11-06T01:58:01.493Z,29.70
2022-11-06T02:00:31.124Z,30.00
2022-11-06T02:02:59.885Z,28.07
2022-11-06T02:05:29.831Z,29.63
2022-11-06T02:07:59.233Z,29.33
2022-11-06T02:10:27.987Z,24.77
2022-11-06T02:13:03.577Z,23.20
2022-11-06T02:15:37.509Z,25.47
2022-11-06T02:18:12.222Z,26.37
2022-11-06T02:20:48.262Z,23.63
2022-11-06T02:23:27.169Z,21.60
2022-11-06T02:26:00.547Z,23.57
2022-11-06T02:28:33.184Z,20.97
2022-11-06T02:31:02.587Z,30.33
2022-11-06T02:33:32.294Z,24.43
2022-11-06T02:36:03.063Z,28.20
2022-11-06T02:38:33.819Z,19.87
2022-11-06T02:41:05.081Z,20.77
2022-11-06T02:47:30.541Z,20.33
2022-11-06T02:50:00.954Z,18.90
2022-11-06T02:52:31.374Z,19.77
2022-11-06T02:55:03.239Z,19.33
2022-11-06T02:57:35.618Z,18.60
2022-11-06T03:00:05.433Z,19.13
2022-11-06T03:02:38.347Z,19.53
2022-11-06T03:05:10.311Z,17.23
2022-11-06T03:07:40.720Z,19.23
2022-11-06T03:10:09.872Z,20.57
2022-11-06T03:12:41.158Z,26.13
2022-11-06T03:15:14.534Z,19.83
2022-11-06T03:17:46.880Z,56.37
2022-11-06T03:20:20.988Z,24.30
2022-11-06T03:22:51.571Z,20.87
2022-11-06T03:25:22.882Z,20.00
2022-11-06T03:27:58.279Z,24.20
2022-11-06T03:30:26.691Z,18.30
2022-11-06T03:32:59.218Z,17.57
2022-11-06T03:35:29.928Z,18.43
2022-11-06T03:38:00.077Z,20.43
2022-11-06T03:40:30.543Z,21.77
2022-11-06T03:43:01.072Z,31.07
2022-11-06T03:45:29.827Z,35.60
2022-11-06T03:48:02.146Z,27.90
2022-11-06T03:50:32.445Z,38.37
2022-11-06T03:53:02.908Z,16.83
2022-11-06T03:55:34.204Z,30.97
2022-11-06T03:58:05.486Z,25.33
2022-11-06T04:00:36.465Z,63.93
2022-11-06T04:03:08.175Z,28.37
2022-11-06T04:05:38.143Z,24.63
2022-11-06T04:08:25.703Z,19.70
2022-11-06T04:11:13.562Z,53.67
2022-11-06T04:14:02.187Z,37.63
2022-11-06T04:16:33.724Z,21.33
2022-11-06T04:19:04.053Z,16.33
2022-11-06T04:21:42.539Z,16.90
2022-11-06T04:24:32.991Z,11.40
2022-11-06T04:27:15.821Z,18.57
2022-11-06T04:29:48.061Z,22.97
2022-11-06T04:32:19.292Z,20.37
2022-11-06T04:34:52.160Z,14.90
2022-11-06T04:37:23.276Z,19.50
2022-11-06T04:39:55.736Z,20.80
2022-11-06T04:42:25.960Z,16.60
2022-11-06T04:44:57.210Z,16.07
2022-11-06T04:47:25.952Z,13.70
2022-11-06T04:49:58.250Z,15.97
2022-11-06T04:52:28.417Z,24.83
2022-11-06T04:54:57.574Z,17.83
2022-11-06T04:57:26.342Z,11.97
2022-11-06T04:59:56.860Z,14.17
2022-11-06T05:02:25.390Z,14.33
2022-11-06T05:04:53.849Z,19.57
2022-11-06T05:07:23.654Z,14.73
2022-11-06T05:09:52.163Z,14.73
2022-11-06T05:12:20.665Z,14.70
2022-11-06T05:14:49.042Z,11.17
2022-11-06T05:17:17.438Z,15.77
2022-11-06T05:19:45.836Z,14.13
2022-11-06T05:22:34.851Z,12.20
2022-11-06T05:25:04.790Z,14.67
2022-11-06T05:27:33.243Z,18.33
2022-11-06T05:30:01.667Z,17.67
2022-11-06T05:32:31.294Z,51.80
2022-11-06T05:34:59.823Z,14.37
2022-11-06T05:37:29.225Z,56.30
2022-11-06T05:39:57.661Z,38.37
2022-11-06T05:42:27.453Z,13.70
2022-11-06T05:44:55.850Z,17.67
2022-11-06T05:47:24.263Z,11.97
2022-11-06T05:49:52.765Z,19.00
2022-11-06T05:52:21.223Z,16.30
2022-11-06T05:54:49.636Z,9.77
2022-11-06T05:57:18.198Z,10.93
2022-11-06T05:59:47.977Z,7.50
2022-11-06T06:02:16.488Z,6.73
2022-11-06T06:04:44.995Z,9.27
2022-11-06T06:07:13.447Z,8.03
2022-11-06T06:09:41.827Z,12.17
2022-11-06T06:12:10.746Z,12.63
2022-11-06T06:14:39.162Z,14.93
2022-11-06T06:17:09.108Z,9.40
2022-11-06T06:19:37.497Z,10.73
2022-11-06T06:22:06.101Z,19.70
2022-11-06T06:24:35.351Z,16.27
2022-11-06T06:27:04.096Z,16.57
2022-11-06T06:29:32.749Z,17.93
2022-11-06T06:32:01.347Z,9.93
2022-11-06T06:34:31.166Z,10.37
2022-11-06T06:36:59.605Z,26.23
2022-11-06T06:39:28.266Z,48.27
2022-11-06T06:41:56.857Z,18.10
2022-11-06T06:44:25.261Z,16.00
2022-11-06T06:46:53.722Z,18.03
2022-11-06T06:49:22.278Z,23.83
2022-11-06T06:51:52.314Z,36.00
2022-11-06T06:54:20.758Z,17.00
2022-11-06T06:56:49.635Z,17.57
2022-11-06T06:59:18.170Z,16.97
2022-11-06T07:01:46.799Z,11.40
2022-11-06T07:04:15.395Z,14.37
2022-11-06T07:06:43.874Z,39.53
2022-11-06T07:09:13.654Z,20.53
2022-11-06T07:11:42.082Z,15.97
2022-11-06T07:14:11.695Z,16.23
2022-11-06T07:16:40.080Z,42.53
2022-11-06T07:19:08.530Z,24.33
2022-11-06T07:21:36.954Z,37.57
2022-11-06T07:24:05.570Z,26.30
2022-11-06T07:26:35.415Z,25.07
2022-11-06T07:29:03.877Z,32.40
2022-11-06T07:31:32.558Z,15.17
2022-11-06T07:34:01.012Z,98.20
2022-11-06T07:36:30.603Z,86.73
2022-11-06T07:38:59.749Z,149.97
2022-11-06T07:41:28.365Z,110.23
2022-11-06T07:43:58.391Z,23.83
2022-11-06T07:46:26.827Z,19.50
2022-11-06T07:48:55.802Z,38.47
2022-11-06T07:51:24.216Z,73.00
2022-11-06T07:53:52.650Z,12.20
2022-11-06T07:56:21.074Z,16.73
2022-11-06T07:58:49.490Z,17.50
2022-11-06T08:01:19.639Z,19.60
2022-11-06T08:03:48.210Z,42.57
2022-11-06T08:06:16.627Z,15.93
2022-11-06T08:08:45.054Z,45.87
2022-11-06T08:11:13.843Z,30.43
2022-11-06T08:13:42.561Z,37.47
2022-11-06T08:16:11.694Z,44.80
2022-11-06T08:18:41.608Z,41.90
2022-11-06T08:21:10.076Z,24.30
2022-11-06T08:23:38.871Z,26.10
2022-11-06T08:26:07.925Z,32.47
2022-11-06T08:28:36.717Z,70.67
2022-11-06T08:31:05.695Z,26.57
2022-11-06T08:33:34.475Z,43.80
2022-11-06T08:36:04.498Z,24.37
2022-11-06T08:38:32.981Z,25.27
2022-11-06T08:41:05.652Z,27.07
2022-11-06T08:43:34.149Z,38.10
2022-11-06T08:46:02.792Z,40.23
2022-11-06T08:48:33.377Z,30.37
2022-11-06T08:51:01.992Z,25.73
2022-11-06T08:53:31.906Z,32.80
2022-11-06T08:56:00.479Z,38.10
2022-11-06T08:58:29.098Z,24.47
2022-11-06T09:00:57.539Z,22.83
2022-11-06T09:03:26.024Z,30.10
2022-11-06T09:05:54.579Z,25.77
2022-11-06T09:08:24.201Z,24.17
2022-11-06T09:10:58.458Z,23.87
2022-11-06T09:13:27.402Z,23.00
2022-11-06T09:15:55.813Z,24.20
2022-11-06T09:18:24.206Z,21.13
2022-11-06T09:20:55.717Z,24.30
2022-11-06T09:23:24.305Z,26.27
2022-11-06T09:25:54.164Z,31.03
2022-11-06T09:28:22.694Z,23.20
2022-11-06T09:30:51.344Z,31.67
2022-11-06T09:33:20.483Z,31.33
2022-11-06T09:35:49.299Z,31.30
2022-11-06T09:38:19.239Z,21.37
2022-11-06T09:40:49.887Z,26.87
2022-11-06T09:43:50.258Z,27.03
2022-11-06T09:46:20.106Z,24.77
2022-11-06T09:48:52.576Z,28.97
2022-11-06T09:51:27.918Z,24.30
2022-11-06T09:53:58.213Z,22.93
2022-11-06T09:56:29.715Z,24.97
2022-11-06T09:59:00.104Z,21.40
2022-11-06T10:01:31.069Z,26.40
2022-11-06T10:04:01.272Z,21.07
2022-11-06T10:06:29.991Z,20.73
2022-11-06T10:08:59.855Z,20.67
2022-11-06T10:11:33.112Z,21.20
2022-11-06T10:14:05.417Z,22.17
2022-11-06T10:16:37.006Z,19.60
2022-11-06T10:19:10.681Z,22.47
2022-11-06T10:21:45.535Z,17.80
2022-11-06T10:24:22.134Z,19.53
2022-11-06T10:26:53.542Z,18.63
2022-11-06T10:29:40.018Z,20.40
2022-11-06T10:32:18.113Z,22.53
2022-11-06T10:34:48.286Z,20.97
2022-11-06T10:37:18.685Z,18.97
2022-11-06T10:39:47.468Z,17.53
2022-11-06T10:42:17.834Z,19.27
2022-11-06T10:44:48.246Z,18.97
2022-11-06T10:47:20.200Z,18.60
2022-11-06T10:49:50.778Z,18.63
2022-11-06T10:52:26.676Z,17.43
2022-11-06T10:55:01.434Z,19.10
2022-11-06T10:57:33.813Z,18.77
2022-11-06T11:00:02.219Z,19.03
2022-11-06T11:02:33.744Z,15.47
2022-11-06T11:05:02.199Z,18.87
2022-11-06T11:07:32.699Z,19.77
2022-11-06T11:10:02.474Z,19.10
2022-11-06T11:12:32.951Z,17.80
2022-11-06T11:15:12.391Z,17.80
2022-11-06T11:17:43.543Z,20.77
2022-11-06T11:20:31.210Z,19.77
2022-11-06T11:23:14.186Z,15.67
2022-11-06T11:25:43.471Z,17.17
2022-11-06T11:28:22.498Z,17.73
2022-11-06T11:30:53.257Z,19.03
2022-11-06T11:33:24.381Z,16.20
2022-11-06T11:35:52.781Z,16.10
2022-11-06T11:38:22.807Z,19.80
2022-11-06T11:40:51.697Z,16.43
2022-11-06T11:43:27.687Z,17.40
2022-11-06T11:46:06.901Z,16.30
2022-11-06T11:48:47.591Z,15.67
2022-11-06T11:51:30.229Z,16.47
2022-11-06T11:54:00.830Z,16.07
2022-11-06T11:56:50.083Z,17.97
2022-11-06T11:59:20.120Z,15.17
2022-11-06T12:01:49.138Z,18.20
2022-11-06T12:04:24.925Z,17.60
2022-11-06T12:06:55.705Z,15.37
2022-11-06T12:09:25.048Z,17.27
2022-11-06T12:11:54.595Z,19.87
2022-11-06T12:14:28.407Z,21.57
2022-11-06T12:16:58.952Z,18.93
2022-11-06T12:19:30.810Z,18.87
2022-11-06T12:22:01.180Z,18.80
2022-11-06T12:24:32.421Z,18.43
2022-11-06T12:27:04.309Z,19.97
2022-11-06T12:29:34.368Z,21.93
2022-11-06T12:32:05.708Z,20.17
2022-11-06T12:34:36.869Z,20.47
2022-11-06T12:37:15.687Z,17.70
2022-11-06T12:39:46.226Z,21.53
2022-11-06T12:42:16.281Z,18.73
2022-11-06T12:44:44.737Z,18.23
2022-11-06T12:47:16.709Z,18.23
2022-11-06T12:50:00.028Z,19.83
2022-11-06T12:52:32.611Z,20.70
2022-11-06T12:55:09.496Z,20.67
2022-11-06T12:57:43.420Z,21.63
2022-11-06T13:00:13.353Z,18.80
2022-11-06T13:02:51.844Z,21.33
2022-11-06T13:05:22.016Z,17.70
2022-11-06T13:07:59.289Z,19.07
2022-11-06T13:10:35.043Z,21.57
2022-11-06T13:13:15.242Z,20.17
2022-11-06T13:15:48.485Z,17.77
2022-11-06T13:18:18.695Z,19.47
2022-11-06T13:20:51.857Z,20.63
2022-11-06T13:23:26.794Z,20.50
2022-11-06T13:25:57.408Z,17.47
2022-11-06T13:28:31.304Z,16.70
2022-11-06T13:31:00.296Z,18.17
2022-11-06T13:33:30.247Z,16.63
2022-11-06T13:36:00.571Z,15.93
2022-11-06T13:38:31.534Z,16.87
2022-11-06T13:41:03.675Z,15.47
2022-11-06T13:43:35.842Z,15.67
2022-11-06T13:46:07.941Z,16.73
2022-11-06T13:48:39.662Z,15.80
2022-11-06T13:51:11.699Z,13.17
2022-11-06T13:53:46.215Z,12.33
2022-11-06T13:56:18.804Z,12.07
2022-11-06T13:58:55.994Z,10.40
2022-11-06T14:01:32.897Z,12.50
2022-11-06T14:04:15.859Z,10.20
2022-11-06T14:06:44.730Z,10.53
2022-11-06T14:09:18.884Z,8.33
2022-11-06T14:11:52.784Z,12.40
2022-11-06T14:14:25.720Z,11.37
2022-11-06T14:17:09.017Z,8.07
2022-11-06T14:19:38.131Z,7.13
2022-11-06T14:22:19.942Z,7.20
2022-11-06T14:24:49.756Z,8.30
2022-11-06T14:27:33.066Z,7.63
2022-11-06T14:30:03.103Z,8.33
2022-11-06T14:32:36.030Z,7.43
2022-11-06T14:35:19.346Z,7.40
2022-11-06T14:37:48.655Z,7.37
2022-11-06T14:40:32.890Z,6.70
2022-11-06T14:43:01.400Z,6.10
2022-11-06T14:45:29.848Z,7.27
2022-11-06T14:47:59.500Z,8.17
2022-11-06T14:50:29.269Z,9.07
2022-11-06T14:52:59.462Z,7.97
2022-11-06T14:55:31.000Z,7.73
2022-11-06T14:58:00.782Z,6.83
2022-11-06T15:00:37.336Z,8.00
2022-11-06T15:03:07.437Z,8.87
2022-11-06T15:05:42.111Z,6.40
2022-11-06T15:08:11.351Z,9.67
2022-11-06T15:10:51.727Z,8.33
2022-11-06T15:13:31.174Z,6.97
2022-11-06T15:16:04.922Z,11.10
2022-11-06T15:18:36.776Z,7.77
2022-11-06T15:21:06.897Z,8.23
2022-11-06T15:23:39.871Z,8.13
2022-11-06T15:26:17.167Z,7.53
2022-11-06T15:28:47.231Z,8.67
2022-11-06T15:31:16.829Z,7.80
2022-11-06T15:33:55.548Z,9.07
2022-11-06T15:36:24.814Z,8.33
2022-11-06T15:38:53.449Z,8.87
2022-11-06T15:41:24.981Z,9.37
2022-11-06T15:43:54.932Z,8.53
2022-11-06T15:46:24.799Z,8.03
2022-11-06T15:49:09.366Z,6.93
2022-11-06T15:51:40.780Z,9.83
2022-11-06T15:54:14.623Z,10.97
2022-11-06T15:56:45.253Z,11.77
2022-11-06T15:59:14.583Z,13.53
2022-11-06T16:01:44.974Z,12.80
2022-11-06T16:04:16.784Z,14.53
2022-11-06T16:06:47.629Z,13.70
2022-11-06T16:09:18.141Z,10.97
2022-11-06T16:11:49.528Z,12.57
2022-11-06T16:14:18.375Z,10.33
2022-11-06T16:16:48.881Z,9.93
2022-11-06T16:19:23.583Z,11.17
2022-11-06T16:21:53.569Z,13.87
2022-11-06T16:24:22.090Z,11.03
2022-11-06T16:26:52.746Z,14.40
2022-11-06T16:29:22.473Z,20.40
2022-11-06T16:31:51.530Z,13.87
2022-11-06T16:34:23.639Z,19.43
2022-11-06T16:36:53.639Z,15.37
2022-11-06T16:39:50.848Z,15.63
2022-11-06T16:42:25.497Z,16.43
2022-11-06T16:45:01.159Z,14.97
2022-11-06T16:47:30.016Z,13.50
2022-11-06T16:49:59.672Z,19.27
2022-11-06T16:52:29.180Z,15.57
2022-11-06T16:54:59.390Z,14.90
2022-11-06T16:57:30.263Z,18.30
2022-11-06T17:00:00.378Z,15.53
2022-11-06T17:02:30.639Z,16.47
2022-11-06T17:05:13.435Z,11.97
2022-11-06T17:07:42.324Z,18.07
2022-11-06T17:10:26.819Z,14.23
2022-11-06T17:12:56.743Z,10.30
2022-11-06T17:15:25.481Z,12.13
2022-11-06T17:17:54.056Z,12.77
2022-11-06T17:20:22.653Z,14.63
2022-11-06T17:22:51.137Z,12.53
2022-11-06T17:25:19.952Z,14.90
2022-11-06T17:27:48.372Z,11.90
2022-11-06T17:30:18.136Z,10.33
2022-11-06T17:32:46.569Z,13.57
2022-11-06T17:35:15.007Z,9.43
2022-11-06T17:37:43.504Z,9.87
2022-11-06T17:40:12.732Z,10.30
2022-11-06T17:42:41.403Z,8.63
2022-11-06T17:45:10.286Z,10.13
2022-11-06T17:47:40.098Z,11.37
2022-11-06T17:50:09.326Z,11.40
2022-11-06T17:52:37.948Z,10.00
2022-11-06T17:55:07.152Z,15.13
2022-11-06T17:57:35.603Z,10.97
2022-11-06T18:00:04.178Z,14.63
2022-11-06T18:03:00.571Z,11.93
2022-11-06T18:05:29.173Z,14.63
2022-11-06T18:07:57.599Z,11.90
2022-11-06T18:10:30.406Z,14.33
2022-11-06T18:12:59.383Z,14.63
2022-11-06T18:15:27.980Z,18.43
2022-11-06T18:17:57.870Z,17.17
2022-11-06T18:20:26.533Z,14.63
2022-11-06T18:22:54.954Z,15.53
2022-11-06T18:25:23.396Z,14.57
2022-11-06T18:27:52.036Z,17.13
2022-11-06T18:30:20.615Z,16.37
2022-11-06T18:32:49.390Z,15.87
2022-11-06T18:35:19.213Z,17.50
2022-11-06T18:37:50.451Z,13.93
2022-11-06T18:40:18.868Z,15.60
2022-11-06T18:42:53.836Z,15.20
2022-11-06T18:45:25.209Z,16.03
2022-11-06T18:47:53.789Z,18.17
2022-11-06T18:50:23.538Z,15.87
2022-11-06T18:52:58.011Z,16.83
2022-11-06T18:55:26.809Z,17.60
2022-11-06T18:57:55.296Z,19.97
2022-11-06T19:00:23.914Z,18.10
2022-11-06T19:02:53.284Z,16.97
2022-11-06T19:05:22.153Z,16.10
2022-11-06T19:07:56.330Z,18.90
2022-11-06T19:10:29.501Z,16.83
2022-11-06T19:12:59.657Z,16.13
2022-11-06T19:15:29.637Z,14.00
2022-11-06T19:17:58.151Z,15.47
2022-11-06T19:20:26.618Z,16.37
2022-11-06T19:22:56.463Z,11.53
2022-11-06T19:25:25.287Z,14.23
2022-11-06T19:27:55.328Z,18.10
2022-11-06T19:30:23.767Z,14.30
2022-11-06T19:32:52.169Z,20.07
2022-11-06T19:35:20.884Z,13.20
2022-11-06T19:37:49.299Z,11.37
2022-11-06T19:40:19.816Z,12.07
2022-11-06T19:42:48.400Z,15.30
2022-11-06T19:45:16.980Z,13.57
2022-11-06T19:47:45.416Z,13.00
2022-11-06T19:50:14.266Z,12.30
2022-11-06T19:52:45.542Z,11.20
2022-11-06T19:55:26.205Z,11.97
2022-11-06T19:57:59.257Z,9.20
2022-11-06T20:00:27.674Z,7.87
2022-11-06T20:02:56.110Z,7.77
2022-11-06T20:05:24.656Z,7.90
2022-11-06T20:07:53.428Z,9.13
2022-11-06T20:10:21.848Z,8.27
2022-11-06T20:12:50.283Z,6.77
2022-11-06T20:15:23.966Z,6.83
2022-11-06T20:17:52.927Z,8.10
2022-11-06T20:20:21.509Z,8.03
2022-11-06T20:22:49.949Z,7.40
2022-11-06T20:25:18.442Z,8.47
2022-11-06T20:27:47.009Z,7.73
2022-11-06T20:30:16.987Z,6.60
2022-11-06T20:32:46.816Z,7.37
2022-11-06T20:35:17.011Z,6.93
2022-11-06T20:37:45.690Z,5.80
2022-11-06T20:40:14.335Z,7.07
2022-11-06T20:42:42.771Z,7.30
2022-11-06T20:45:11.584Z,6.77
2022-11-06T20:47:40.045Z,6.23
2022-11-06T20:50:10.188Z,5.10
2022-11-06T20:52:41.413Z,7.63
2022-11-06T20:55:10.198Z,6.83
2022-11-06T20:57:38.899Z,5.70
2022-11-06T21:00:10.239Z,6.17
2022-11-06T21:02:39.042Z,6.10
2022-11-06T21:05:07.751Z,7.90
2022-11-06T21:07:37.547Z,7.27
2022-11-06T21:10:06.325Z,5.80
2022-11-06T21:12:34.861Z,6.10
2022-11-06T21:15:03.359Z,4.03
2022-11-06T21:17:31.869Z,5.03
2022-11-06T21:20:00.640Z,4.33
2022-11-06T21:22:29.070Z,4.30
2022-11-06T21:24:58.859Z,3.43
2022-11-06T21:27:27.298Z,2.83
2022-11-06T21:29:57.208Z,3.77
2022-11-06T21:32:25.671Z,4.73
2022-11-06T21:34:54.244Z,2.80
2022-11-06T21:37:32.812Z,4.30
2022-11-06T21:40:02.800Z,2.60
2022-11-06T21:42:31.389Z,3.47
2022-11-06T21:45:00.207Z,4.20
2022-11-06T21:47:29.788Z,4.30
2022-11-06T21:49:58.238Z,5.20
2022-11-06T21:52:52.951Z,4.47
2022-11-06T21:55:41.872Z,4.00
2022-11-06T21:58:10.528Z,5.30
2022-11-06T22:00:40.093Z,3.90
2022-11-06T22:03:09.032Z,5.20
2022-11-06T22:05:37.552Z,4.07
2022-11-06T22:08:06.745Z,4.30
2022-11-06T22:10:36.891Z,4.47
2022-11-06T22:13:05.365Z,4.67
2022-11-06T22:15:33.841Z,4.30
2022-11-06T22:18:02.281Z,5.40
2022-11-06T22:20:30.800Z,5.53
2022-11-06T22:22:59.231Z,3.83
2022-11-06T22:25:27.619Z,4.37
2022-11-06T22:27:57.390Z,3.33
2022-11-06T22:30:25.769Z,4.13
2022-11-06T22:32:54.319Z,4.53
2022-11-06T22:35:22.752Z,6.30
2022-11-06T22:37:51.192Z,3.73
2022-11-06T22:40:19.594Z,4.03
2022-11-06T22:42:50.013Z,5.63
2022-11-06T22:45:21.359Z,4.67
2022-11-06T22:47:50.158Z,4.20
2022-11-06T22:50:18.595Z,5.93
2022-11-06T22:52:47.474Z,4.13
2022-11-06T22:55:15.992Z,3.27
2022-11-06T22:57:44.450Z,4.20
2022-11-06T23:00:13.633Z,3.27
2022-11-06T23:02:43.567Z,3.33
2022-11-06T23:05:12.075Z,4.27
2022-11-06T23:07:40.507Z,3.53
2022-11-06T23:10:09.655Z,3.80
2022-11-06T23:12:38.158Z,3.37
2022-11-06T23:15:07.167Z,3.83
2022-11-06T23:17:37.499Z,4.07
2022-11-06T23:20:07.809Z,3.90
2022-11-06T23:22:39.533Z,4.37
2022-11-06T23:25:08.634Z,3.13
2022-11-06T23:27:37.439Z,2.30
2022-11-06T23:30:07.415Z,5.37
2022-11-06T23:32:37.126Z,4.70
2022-11-06T23:35:12.943Z,3.40
2022-11-06T23:37:41.762Z,3.53
2022-11-06T23:40:10.980Z,2.70
2022-11-06T23:42:39.540Z,2.77
2022-11-06T23:45:26.267Z,4.73
2022-11-06T23:47:54.925Z,2.67
2022-11-06T23:50:24.716Z,3.47
2022-11-06T23:52:53.188Z,3.97
2022-11-06T23:55:21.582Z,3.03
2022-11-06T23:57:50.003Z,2.00
